| time (UTC) | temp F | wind direction | speed MPH | gust MPH | rain 1hr in | rain 24hr in | rain mn in | humidity % | barometer mb |
| 20260510115504 | 46 | 329 | 2.0 | 6.0 | 0.00 | 0.50 | 0.00 | 92 | 1013.0 |
| 20260510115004 | 46 | 324 | 2.0 | 6.0 | 0.00 | 0.50 | 0.00 | 92 | 1013.1 |
| 20260510114504 | 46 | 321 | 1.0 | 5.0 | 0.00 | 0.50 | 0.00 | 92 | 1012.8 |
| 20260510114004 | 46 | 345 | 1.0 | 5.0 | 0.00 | 0.50 | 0.00 | 92 | 1012.7 |
| 20260510113503 | 46 | 354 | 1.0 | 5.0 | 0.00 | 0.50 | 0.00 | 92 | 1012.5 |
| 20260510113005 | 46 | 327 | 1.0 | 4.0 | 0.00 | 0.50 | 0.00 | 92 | 1012.3 |
| 20260510112504 | 46 | 324 | 2.0 | 5.0 | 0.00 | 0.50 | 0.00 | 92 | 1012.2 |
| 20260510112004 | 46 | 345 | 1.0 | 5.0 | 0.00 | 0.50 | 0.00 | 92 | 1012.2 |
| 20260510111504 | 46 | 345 | 1.0 | 4.0 | 0.00 | 0.50 | 0.00 | 92 | 1012.1 |
| 20260510111004 | 46 | 329 | 1.0 | 4.0 | 0.00 | 0.50 | 0.00 | 92 | 1011.9 |
| 20260510110504 | 46 | 333 | 0.0 | 2.0 | 0.00 | 0.50 | 0.00 | 92 | 1011.8 |
| 20260510110005 | 46 | 335 | 1.0 | 2.0 | 0.00 | 0.50 | 0.00 | 92 | 1011.7 |
| 20260510105504 | 46 | 336 | 1.0 | 4.0 | 0.00 | 0.50 | 0.00 | 92 | 1011.7 |
| 20260510105004 | 46 | 337 | 1.0 | 4.0 | 0.00 | 0.50 | 0.00 | 92 | 1011.5 |
| 20260510104504 | 46 | 340 | 0.0 | 3.0 | 0.00 | 0.50 | 0.00 | 92 | 1011.2 |
| 20260510103004 | 47 | 347 | 1.0 | 6.0 | 0.00 | 0.50 | 0.00 | 92 | 1010.9 |
| 20260510102504 | 47 | 354 | 1.0 | 6.0 | 0.00 | 0.50 | 0.00 | 92 | 1011.0 |
| 20260510102004 | 47 | 4 | 0.0 | 4.0 | 0.00 | 0.50 | 0.00 | 92 | 1010.9 |
| 20260510101504 | 47 | 330 | 0.0 | 3.0 | 0.00 | 0.50 | 0.00 | 92 | 1010.9 |
| 20260510101004 | 47 | 330 | 0.0 | 3.0 | 0.00 | 0.50 | 0.00 | 92 | 1010.9 |
| 20260510100503 | 47 | 0 | 0.0 | 0.0 | 0.00 | 0.50 | 0.00 | 92 | 1010.7 |
| 20260510095503 | 47 | 0 | 0.0 | 0.0 | 0.00 | 0.50 | 0.00 | 92 | 1010.8 |
| 20260510094503 | 48 | 11 | 0.0 | 3.0 | 0.00 | 0.50 | 0.00 | 92 | 1010.7 |
| 20260510094005 | 48 | 10 | 0.0 | 3.0 | 0.00 | 0.50 | 0.00 | 92 | 1010.6 |
| 20260510093504 | 48 | 0 | 0.0 | 0.0 | 0.00 | 0.50 | 0.00 | 92 | 1010.5 |
| 20260510093004 | 48 | 0 | 0.0 | 0.0 | 0.00 | 0.50 | 0.00 | 92 | 1010.3 |
| 20260510092504 | 48 | 0 | 0.0 | 0.0 | 0.00 | 0.50 | 0.00 | 91 | 1010.3 |
| 20260510092004 | 48 | 0 | 0.0 | 0.0 | 0.00 | 0.50 | 0.00 | 92 | 1010.1 |
| 20260510091504 | 48 | 0 | 0.0 | 0.0 | 0.00 | 0.50 | 0.00 | 92 | 1010.1 |
| 20260510091005 | 48 | 0 | 0.0 | 0.0 | 0.00 | 0.50 | 0.00 | 91 | 1009.9 |
| 20260510090504 | 49 | 0 | 0.0 | 0.0 | 0.00 | 0.50 | 0.00 | 91 | 1009.8 |
| 20260510090004 | 49 | 0 | 0.0 | 0.0 | 0.00 | 0.50 | 0.00 | 92 | 1009.6 |
| 20260510085504 | 49 | 0 | 0.0 | 0.0 | 0.00 | 0.50 | 0.00 | 92 | 1009.4 |
| 20260510085004 | 49 | 0 | 0.0 | 0.0 | 0.00 | 0.50 | 0.00 | 91 | 1009.4 |
| 20260510084005 | 50 | 0 | 0.0 | 0.0 | 0.00 | 0.51 | 0.00 | 92 | 1009.4 |
| 20260510083503 | 50 | 0 | 0.0 | 0.0 | 0.00 | 0.51 | 0.00 | 92 | 1009.5 |
| 20260510083005 | 50 | 0 | 0.0 | 0.0 | 0.00 | 0.51 | 0.00 | 92 | 1009.4 |
| 20260510082004 | 50 | 0 | 0.0 | 0.0 | 0.00 | 0.51 | 0.00 | 92 | 1009.5 |
| 20260510081504 | 51 | 0 | 0.0 | 0.0 | 0.00 | 0.51 | 0.00 | 92 | 1009.5 |
| 20260510081005 | 51 | 0 | 0.0 | 0.0 | 0.00 | 0.51 | 0.00 | 92 | 1009.5 |
| 20260510080503 | 51 | 9 | 0.0 | 2.0 | 0.00 | 0.52 | 0.00 | 92 | 1009.4 |
| 20260510080005 | 51 | 10 | 0.0 | 2.0 | 0.00 | 0.52 | 0.00 | 92 | 1009.2 |
| 20260510075503 | 52 | 9 | 0.0 | 2.0 | 0.00 | 0.53 | 0.00 | 92 | 1009.1 |
| 20260510075005 | 52 | 9 | 0.0 | 2.0 | 0.00 | 0.54 | 0.00 | 92 | 1009.0 |
| 20260510074503 | 52 | 7 | 0.0 | 2.0 | 0.00 | 0.54 | 0.00 | 92 | 1008.9 |
| 20260510074004 | 52 | 6 | 0.0 | 2.0 | 0.00 | 0.55 | 0.00 | 92 | 1008.8 |
| 20260510073504 | 52 | 6 | 0.0 | 1.0 | 0.00 | 0.55 | 0.00 | 92 | 1008.7 |
| 20260510072504 | 52 | 6 | 1.0 | 3.0 | 0.00 | 0.56 | 0.00 | 92 | 1008.5 |
| 20260510072004 | 52 | 6 | 1.0 | 3.0 | 0.00 | 0.56 | 0.00 | 92 | 1008.4 |
| 20260510071004 | 53 | 1 | 1.0 | 5.0 | 0.00 | 0.57 | 0.00 | 92 | 1008.3 |
| 20260510070504 | 53 | 3 | 1.0 | 3.0 | 0.00 | 0.57 | 0.00 | 92 | 1008.2 |
| 20260510070004 | 53 | 344 | 1.0 | 4.0 | 0.00 | 0.57 | 0.00 | 92 | 1008.2 |
| 20260510065504 | 53 | 326 | 1.0 | 4.0 | 0.00 | 0.57 | 0.00 | 93 | 1008.1 |
| 20260510065005 | 53 | 316 | 1.0 | 4.0 | 0.00 | 0.58 | 0.00 | 93 | 1007.9 |
| 20260510064504 | 53 | 318 | 2.0 | 4.0 | 0.00 | 0.58 | 0.00 | 93 | 1007.9 |
| 20260510064004 | 53 | 320 | 1.0 | 4.0 | 0.00 | 0.59 | 0.00 | 92 | 1007.8 |
| 20260510063504 | 53 | 319 | 0.0 | 3.0 | 0.00 | 0.60 | 0.00 | 92 | 1007.8 |
| 20260510063004 | 53 | 0 | 0.0 | 0.0 | 0.00 | 0.60 | 0.00 | 92 | 1007.8 |
| 20260510062504 | 53 | 0 | 0.0 | 0.0 | 0.00 | 0.61 | 0.00 | 92 | 1007.7 |
| 20260510061504 | 53 | 0 | 0.0 | 0.0 | 0.00 | 0.61 | 0.00 | 92 | 1007.5 |
| 20260510061004 | 54 | 0 | 0.0 | 0.0 | 0.00 | 0.61 | 0.00 | 92 | 1007.6 |
| 20260510060005 | 54 | 0 | 0.0 | 0.0 | 0.00 | 0.61 | 0.00 | 92 | 1007.5 |
| 20260510055503 | 54 | 0 | 0.0 | 0.0 | 0.00 | 0.62 | 0.00 | 92 | 1007.6 |
| 20260510055005 | 54 | 301 | 1.0 | 3.0 | 0.00 | 0.63 | 0.00 | 92 | 1007.6 |
| 20260510054004 | 54 | 0 | 0.0 | 0.0 | 0.00 | 0.65 | 0.00 | 92 | 1007.4 |
| 20260510053503 | 54 | 0 | 0.0 | 0.0 | 0.00 | 0.66 | 0.00 | 92 | 1007.3 |
| 20260510053004 | 54 | 0 | 0.0 | 0.0 | 0.00 | 0.67 | 0.00 | 92 | 1007.2 |
| 20260510052504 | 54 | 0 | 0.0 | 0.0 | 0.00 | 0.68 | 0.00 | 92 | 1007.1 |
| 20260510052004 | 54 | 0 | 0.0 | 0.0 | 0.00 | 0.69 | 0.00 | 92 | 1007.0 |
| 20260510051504 | 54 | 0 | 0.0 | 0.0 | 0.00 | 0.69 | 0.00 | 92 | 1006.9 |
| 20260510050503 | 54 | 0 | 0.0 | 0.0 | 0.00 | 0.70 | 0.00 | 92 | 1006.6 |
| 20260510050005 | 54 | 0 | 0.0 | 0.0 | 0.00 | 0.71 | 0.00 | 92 | 1006.5 |
| 20260510045504 | 54 | 0 | 0.0 | 0.0 | 0.00 | 0.72 | 0.00 | 92 | 1006.5 |
| 20260510045005 | 54 | 0 | 0.0 | 0.0 | 0.00 | 0.72 | 0.00 | 92 | 1006.5 |
| 20260510044504 | 54 | 0 | 0.0 | 0.0 | 0.00 | 0.73 | 0.00 | 92 | 1006.5 |
| 20260510044004 | 54 | 0 | 0.0 | 0.0 | 0.00 | 0.73 | 0.00 | 92 | 1006.4 |
| 20260510043503 | 55 | 0 | 0.0 | 0.0 | 0.01 | 0.73 | 0.00 | 92 | 1006.6 |
| 20260510043005 | 55 | 0 | 0.0 | 0.0 | 0.01 | 0.73 | 0.00 | 92 | 1006.7 |
| 20260510042506 | 55 | 0 | 0.0 | 0.0 | 0.02 | 0.73 | 0.00 | 92 | 1006.6 |
| 20260510042005 | 55 | 0 | 0.0 | 0.0 | 0.03 | 0.73 | 0.00 | 92 | 1006.6 |
| 20260510041504 | 55 | 0 | 0.0 | 0.0 | 0.05 | 0.73 | 0.00 | 92 | 1006.6 |
| 20260510041004 | 55 | 0 | 0.0 | 0.0 | 0.05 | 0.73 | 0.00 | 92 | 1006.6 |
| 20260510040008 | 55 | 0 | 0.0 | 0.0 | 0.05 | 0.73 | 0.00 | 92 | 1006.6 |
| 20260510035503 | 55 | 0 | 0.0 | 0.0 | 0.05 | 0.73 | 0.73 | 92 | 1006.6 |
| 20260510034005 | 55 | 247 | 1.0 | 3.0 | 0.05 | 0.73 | 0.73 | 92 | 1006.7 |
| 20260510033004 | 55 | 293 | 3.0 | 11.0 | 0.04 | 0.73 | 0.72 | 92 | 1006.8 |
| 20260510032504 | 55 | 282 | 2.0 | 9.0 | 0.05 | 0.72 | 0.71 | 92 | 1007.1 |
| 20260510032005 | 55 | 223 | 0.0 | 1.0 | 0.05 | 0.72 | 0.70 | 91 | 1006.7 |
| 20260510031503 | 55 | 0 | 0.0 | 0.0 | 0.03 | 0.70 | 0.68 | 91 | 1006.2 |
| 20260510031005 | 55 | 0 | 0.0 | 0.0 | 0.03 | 0.70 | 0.68 | 91 | 1006.6 |
| 20260510030005 | 55 | 0 | 0.0 | 0.0 | 0.03 | 0.70 | 0.68 | 91 | 1006.7 |
| 20260510025503 | 55 | 0 | 0.0 | 0.0 | 0.03 | 0.70 | 0.68 | 91 | 1006.8 |
| 20260510025005 | 55 | 0 | 0.0 | 0.0 | 0.03 | 0.71 | 0.68 | 91 | 1006.6 |
| 20260510024504 | 55 | 292 | 0.0 | 1.0 | 0.03 | 0.71 | 0.68 | 91 | 1006.5 |
| 20260510024004 | 55 | 302 | 1.0 | 5.0 | 0.03 | 0.71 | 0.68 | 91 | 1006.6 |
| 20260510023504 | 55 | 300 | 2.0 | 6.0 | 0.03 | 0.72 | 0.68 | 91 | 1006.8 |
| 20260510023004 | 55 | 303 | 2.0 | 6.0 | 0.03 | 0.72 | 0.68 | 91 | 1007.0 |
| 20260510022504 | 55 | 332 | 0.0 | 6.0 | 0.00 | 0.69 | 0.65 | 90 | 1006.7 |
| 20260510021504 | 55 | 0 | 0.0 | 0.0 | 0.00 | 0.70 | 0.65 | 90 | 1005.7 |
| 20260510021004 | 55 | 0 | 0.0 | 0.0 | 0.00 | 0.70 | 0.65 | 90 | 1005.7 |
| 20260510020503 | 55 | 0 | 0.0 | 0.0 | 0.00 | 0.70 | 0.65 | 89 | 1005.7 |
| 20260510020005 | 55 | 0 | 0.0 | 0.0 | 0.00 | 0.71 | 0.65 | 89 | 1005.9 |
| 20260510015503 | 55 | 0 | 0.0 | 0.0 | 0.00 | 0.71 | 0.65 | 89 | 1005.9 |
| 20260510015005 | 55 | 0 | 0.0 | 0.0 | 0.00 | 0.71 | 0.65 | 89 | 1005.8 |
| 20260510014503 | 55 | 0 | 0.0 | 0.0 | 0.00 | 0.71 | 0.65 | 89 | 1005.6 |
| 20260510014004 | 55 | 0 | 0.0 | 0.0 | 0.00 | 0.71 | 0.65 | 89 | 1005.7 |
| 20260510013504 | 56 | 0 | 0.0 | 0.0 | 0.00 | 0.72 | 0.65 | 89 | 1005.7 |
| 20260510013004 | 56 | 0 | 0.0 | 0.0 | 0.00 | 0.72 | 0.65 | 88 | 1005.7 |
| 20260510012504 | 56 | 0 | 0.0 | 0.0 | 0.00 | 0.72 | 0.65 | 88 | 1005.6 |
| 20260510012005 | 56 | 0 | 0.0 | 0.0 | 0.00 | 0.73 | 0.65 | 88 | 1005.4 |
| 20260510011503 | 56 | 0 | 0.0 | 0.0 | 0.01 | 0.73 | 0.65 | 88 | 1005.4 |
| 20260510011005 | 56 | 0 | 0.0 | 0.0 | 0.01 | 0.74 | 0.65 | 88 | 1005.4 |
| 20260510010005 | 56 | 0 | 0.0 | 0.0 | 0.02 | 0.74 | 0.65 | 87 | 1005.4 |
| 20260510005503 | 56 | 0 | 0.0 | 0.0 | 0.04 | 0.75 | 0.65 | 87 | 1005.4 |
| 20260510005005 | 56 | 0 | 0.0 | 0.0 | 0.13 | 0.75 | 0.65 | 87 | 1005.4 |
| 20260510004503 | 56 | 0 | 0.0 | 0.0 | 0.17 | 0.75 | 0.65 | 86 | 1005.2 |
| 20260510004004 | 57 | 239 | 0.0 | 3.0 | 0.20 | 0.76 | 0.65 | 86 | 1005.3 |
| 20260510003504 | 57 | 239 | 1.0 | 3.0 | 0.23 | 0.76 | 0.65 | 86 | 1005.3 |
| 20260510003004 | 57 | 239 | 1.0 | 3.0 | 0.29 | 0.77 | 0.65 | 86 | 1005.3 |
| 20260510002504 | 57 | 239 | 1.0 | 3.0 | 0.34 | 0.77 | 0.65 | 85 | 1005.3 |
| 20260510002004 | 57 | 270 | 1.0 | 7.0 | 0.39 | 0.77 | 0.65 | 85 | 1005.3 |
| 20260510001503 | 57 | 261 | 2.0 | 7.0 | 0.41 | 0.77 | 0.64 | 85 | 1005.3 |
| 20260510001005 | 58 | 226 | 2.0 | 7.0 | 0.41 | 0.77 | 0.64 | 84 | 1005.4 |
| 20260510000503 | 58 | 240 | 2.0 | 7.0 | 0.41 | 0.78 | 0.64 | 83 | 1005.5 |
| 20260510000004 | 59 | 284 | 2.0 | 10.0 | 0.40 | 0.77 | 0.63 | 82 | 1005.6 |
| 20260509235504 | 59 | 303 | 4.0 | 14.0 | 0.38 | 0.75 | 0.61 | 81 | 1005.6 |
| 20260509234504 | 61 | 306 | 5.0 | 16.0 | 0.25 | 0.64 | 0.48 | 78 | 1005.4 |
| 20260509233503 | 64 | 310 | 5.0 | 14.0 | 0.18 | 0.57 | 0.41 | 73 | 1005.5 |
| 20260509233005 | 65 | 311 | 6.0 | 16.0 | 0.13 | 0.52 | 0.36 | 72 | 1004.9 |
| 20260509232504 | 66 | 310 | 7.0 | 17.0 | 0.08 | 0.47 | 0.31 | 69 | 1005.1 |
| 20260509232004 | 67 | 289 | 5.0 | 17.0 | 0.03 | 0.42 | 0.26 | 67 | 1004.7 |
| 20260509231503 | 67 | 230 | 4.0 | 10.0 | 0.00 | 0.40 | 0.23 | 61 | 1004.2 |
| 20260509231005 | 67 | 221 | 4.0 | 10.0 | 0.00 | 0.40 | 0.23 | 58 | 1003.3 |
| 20260509230503 | 68 | 225 | 4.0 | 11.0 | 0.00 | 0.40 | 0.23 | 56 | 1003.0 |
| 20260509230005 | 68 | 222 | 4.0 | 11.0 | 0.00 | 0.40 | 0.23 | 56 | 1003.0 |
| 20260509225004 | 68 | 235 | 5.0 | 13.0 | 0.00 | 0.40 | 0.23 | 56 | 1003.1 |
| 20260509224504 | 68 | 226 | 6.0 | 16.0 | 0.00 | 0.41 | 0.23 | 56 | 1002.8 |
| 20260509223005 | 68 | 217 | 5.0 | 13.0 | 0.00 | 0.42 | 0.23 | 57 | 1002.7 |
| 20260509222504 | 68 | 218 | 5.0 | 13.0 | 0.00 | 0.42 | 0.23 | 55 | 1002.9 |
| 20260509222004 | 68 | 225 | 5.0 | 12.0 | 0.00 | 0.42 | 0.23 | 55 | 1002.8 |
| 20260509221504 | 68 | 215 | 5.0 | 12.0 | 0.00 | 0.42 | 0.23 | 55 | 1002.8 |
| 20260509221004 | 68 | 215 | 4.0 | 15.0 | 0.00 | 0.42 | 0.23 | 54 | 1002.7 |
| 20260509220504 | 68 | 222 | 3.0 | 15.0 | 0.00 | 0.42 | 0.23 | 56 | 1002.7 |
| 20260509215504 | 68 | 218 | 6.0 | 11.0 | 0.00 | 0.42 | 0.23 | 54 | 1002.8 |
| 20260509215005 | 68 | 218 | 6.0 | 15.0 | 0.00 | 0.43 | 0.23 | 53 | 1002.7 |
| 20260509214503 | 68 | 220 | 6.0 | 15.0 | 0.00 | 0.43 | 0.23 | 54 | 1002.8 |
| 20260509214007 | 68 | 217 | 5.0 | 14.0 | 0.00 | 0.43 | 0.23 | 54 | 1002.7 |
| 20260509213503 | 68 | 212 | 5.0 | 13.0 | 0.00 | 0.43 | 0.23 | 54 | 1002.9 |
| 20260509213005 | 68 | 206 | 5.0 | 16.0 | 0.00 | 0.43 | 0.23 | 55 | 1002.7 |
| 20260509212504 | 68 | 210 | 5.0 | 16.0 | 0.00 | 0.43 | 0.23 | 55 | 1002.8 |
| 20260509212004 | 69 | 212 | 5.0 | 13.0 | 0.00 | 0.43 | 0.23 | 56 | 1002.9 |
| 20260509211504 | 68 | 215 | 5.0 | 13.0 | 0.00 | 0.43 | 0.23 | 55 | 1002.9 |
| 20260509211004 | 69 | 218 | 5.0 | 12.0 | 0.00 | 0.43 | 0.23 | 56 | 1003.0 |
| 20260509210504 | 69 | 224 | 6.0 | 15.0 | 0.00 | 0.43 | 0.23 | 57 | 1003.1 |
| 20260509210004 | 69 | 228 | 5.0 | 15.0 | 0.00 | 0.43 | 0.23 | 56 | 1003.2 |
| 20260509205504 | 68 | 217 | 4.0 | 16.0 | 0.00 | 0.43 | 0.23 | 57 | 1003.2 |
| 20260509205004 | 68 | 209 | 5.0 | 16.0 | 0.00 | 0.43 | 0.23 | 56 | 1003.3 |
| 20260509204504 | 68 | 217 | 5.0 | 13.0 | 0.00 | 0.43 | 0.23 | 57 | 1003.4 |
| 20260509204004 | 68 | 211 | 5.0 | 15.0 | 0.00 | 0.44 | 0.23 | 57 | 1003.5 |
| 20260509203504 | 69 | 211 | 4.0 | 15.0 | 0.00 | 0.45 | 0.23 | 57 | 1003.5 |
| 20260509202504 | 69 | 205 | 5.0 | 13.0 | 0.00 | 0.45 | 0.23 | 58 | 1003.7 |
| 20260509202004 | 70 | 222 | 5.0 | 11.0 | 0.00 | 0.46 | 0.23 | 56 | 1003.8 |
| 20260509201504 | 70 | 239 | 4.0 | 10.0 | 0.00 | 0.46 | 0.23 | 59 | 1003.7 |
| 20260509201005 | 69 | 233 | 5.0 | 12.0 | 0.00 | 0.47 | 0.23 | 58 | 1004.0 |
| 20260509200503 | 69 | 227 | 5.0 | 13.0 | 0.00 | 0.47 | 0.23 | 58 | 1003.9 |
| 20260509195005 | 69 | 235 | 5.0 | 13.0 | 0.00 | 0.47 | 0.23 | 59 | 1004.0 |
| 20260509194504 | 69 | 230 | 5.0 | 13.0 | 0.00 | 0.47 | 0.23 | 57 | 1004.1 |
| 20260509194005 | 69 | 225 | 6.0 | 12.0 | 0.00 | 0.47 | 0.23 | 58 | 1004.2 |
| 20260509193504 | 69 | 227 | 5.0 | 12.0 | 0.00 | 0.47 | 0.23 | 58 | 1004.2 |
| 20260509192503 | 68 | 230 | 4.0 | 11.0 | 0.00 | 0.47 | 0.23 | 59 | 1004.5 |
| 20260509192005 | 68 | 226 | 4.0 | 11.0 | 0.00 | 0.47 | 0.23 | 58 | 1004.7 |
| 20260509191503 | 68 | 227 | 4.0 | 13.0 | 0.00 | 0.47 | 0.23 | 58 | 1004.7 |
| 20260509191004 | 68 | 228 | 6.0 | 17.0 | 0.00 | 0.47 | 0.23 | 57 | 1004.8 |
| 20260509190503 | 69 | 235 | 6.0 | 17.0 | 0.00 | 0.47 | 0.23 | 57 | 1004.8 |
| 20260509190005 | 69 | 237 | 4.0 | 13.0 | 0.00 | 0.47 | 0.23 | 58 | 1004.8 |
| 20260509185503 | 69 | 236 | 4.0 | 12.0 | 0.00 | 0.47 | 0.23 | 59 | 1004.8 |
| 20260509185004 | 68 | 239 | 5.0 | 13.0 | 0.00 | 0.47 | 0.23 | 58 | 1004.9 |
| 20260509184504 | 68 | 239 | 4.0 | 13.0 | 0.00 | 0.47 | 0.23 | 59 | 1004.9 |
| 20260509183504 | 68 | 219 | 5.0 | 14.0 | 0.00 | 0.47 | 0.23 | 58 | 1004.8 |
| 20260509182504 | 69 | 224 | 5.0 | 14.0 | 0.00 | 0.47 | 0.23 | 60 | 1004.9 |
| 20260509182004 | 69 | 220 | 5.0 | 14.0 | 0.00 | 0.47 | 0.23 | 58 | 1004.9 |
| 20260509181504 | 70 | 218 | 5.0 | 14.0 | 0.00 | 0.47 | 0.23 | 58 | 1005.0 |
| 20260509181004 | 70 | 215 | 4.0 | 10.0 | 0.00 | 0.47 | 0.23 | 58 | 1005.0 |
| 20260509180504 | 70 | 214 | 4.0 | 8.0 | 0.00 | 0.47 | 0.23 | 61 | 1004.8 |
| 20260509180004 | 69 | 205 | 4.0 | 10.0 | 0.00 | 0.47 | 0.23 | 62 | 1005.0 |
| 20260509175504 | 69 | 204 | 4.0 | 10.0 | 0.00 | 0.48 | 0.23 | 59 | 1005.0 |
| 20260509175004 | 70 | 226 | 5.0 | 11.0 | 0.00 | 0.48 | 0.23 | 59 | 1005.0 |
| 20260509174504 | 70 | 229 | 5.0 | 12.0 | 0.00 | 0.48 | 0.23 | 60 | 1005.1 |
| 20260509174004 | 69 | 224 | 4.0 | 12.0 | 0.00 | 0.48 | 0.23 | 59 | 1005.1 |
| 20260509173504 | 70 | 231 | 4.0 | 10.0 | 0.00 | 0.48 | 0.23 | 59 | 1005.0 |
| 20260509173005 | 69 | 223 | 4.0 | 10.0 | 0.00 | 0.49 | 0.23 | 61 | 1005.0 |
| 20260509172504 | 69 | 201 | 4.0 | 10.0 | 0.00 | 0.49 | 0.23 | 60 | 1005.0 |
| 20260509172005 | 68 | 202 | 3.0 | 10.0 | 0.00 | 0.49 | 0.23 | 62 | 1005.0 |
| 20260509170504 | 67 | 219 | 4.0 | 9.0 | 0.00 | 0.49 | 0.23 | 63 | 1004.9 |
| 20260509170004 | 67 | 225 | 3.0 | 8.0 | 0.00 | 0.49 | 0.23 | 63 | 1004.9 |
| 20260509165503 | 66 | 233 | 3.0 | 8.0 | 0.00 | 0.49 | 0.23 | 66 | 1005.0 |
| 20260509165004 | 66 | 228 | 4.0 | 10.0 | 0.00 | 0.49 | 0.23 | 67 | 1005.1 |
| 20260509164005 | 65 | 234 | 3.0 | 8.0 | 0.00 | 0.49 | 0.23 | 66 | 1005.4 |
| 20260509163504 | 65 | 251 | 3.0 | 8.0 | 0.00 | 0.49 | 0.23 | 68 | 1005.5 |
| 20260509163004 | 65 | 235 | 4.0 | 10.0 | 0.00 | 0.49 | 0.23 | 68 | 1005.6 |
| 20260509162504 | 65 | 229 | 4.0 | 10.0 | 0.00 | 0.49 | 0.23 | 68 | 1005.6 |
| 20260509162005 | 64 | 226 | 4.0 | 10.0 | 0.00 | 0.49 | 0.23 | 69 | 1005.5 |
| 20260509161005 | 64 | 220 | 4.0 | 9.0 | 0.00 | 0.49 | 0.23 | 72 | 1005.4 |
| 20260509160504 | 63 | 219 | 4.0 | 8.0 | 0.00 | 0.49 | 0.23 | 76 | 1005.5 |
| 20260509160005 | 62 | 233 | 4.0 | 11.0 | 0.00 | 0.49 | 0.23 | 78 | 1005.5 |
| 20260509155504 | 61 | 252 | 3.0 | 11.0 | 0.00 | 0.49 | 0.23 | 82 | 1005.5 |
| 20260509155004 | 60 | 246 | 4.0 | 9.0 | 0.00 | 0.49 | 0.23 | 86 | 1005.5 |
| 20260509154504 | 60 | 247 | 3.0 | 9.0 | 0.00 | 0.49 | 0.23 | 88 | 1005.6 |
| 20260509154005 | 59 | 249 | 3.0 | 9.0 | 0.00 | 0.49 | 0.23 | 90 | 1005.6 |
| 20260509153504 | 59 | 266 | 3.0 | 9.0 | 0.00 | 0.49 | 0.23 | 91 | 1005.4 |
| 20260509153004 | 58 | 266 | 3.0 | 9.0 | 0.00 | 0.49 | 0.23 | 92 | 1005.4 |
| 20260509152504 | 58 | 230 | 3.0 | 8.0 | 0.00 | 0.49 | 0.23 | 93 | 1005.5 |
| 20260509152004 | 58 | 231 | 2.0 | 8.0 | 0.00 | 0.49 | 0.23 | 94 | 1005.4 |
| 20260509145504 | 57 | 234 | 3.0 | 9.0 | 0.00 | 0.49 | 0.23 | 94 | 1005.4 |
| 20260509145004 | 57 | 234 | 3.0 | 6.0 | 0.00 | 0.49 | 0.23 | 94 | 1005.4 |
| 20260509144504 | 57 | 231 | 2.0 | 6.0 | 0.00 | 0.49 | 0.23 | 94 | 1005.4 |
| 20260509144005 | 56 | 225 | 2.0 | 5.0 | 0.00 | 0.49 | 0.23 | 94 | 1005.5 |
| 20260509143504 | 56 | 236 | 3.0 | 7.0 | 0.00 | 0.49 | 0.23 | 94 | 1005.4 |
| 20260509143005 | 55 | 245 | 2.0 | 7.0 | 0.00 | 0.49 | 0.23 | 94 | 1005.4 |
| 20260509142504 | 55 | 244 | 0.0 | 7.0 | 0.00 | 0.49 | 0.23 | 94 | 1005.4 |
| 20260509142004 | 55 | 233 | 0.0 | 3.0 | 0.00 | 0.49 | 0.23 | 94 | 1005.5 |
| 20260509141504 | 54 | 227 | 1.0 | 4.0 | 0.00 | 0.49 | 0.23 | 94 | 1005.5 |
| 20260509141004 | 54 | 221 | 1.0 | 4.0 | 0.00 | 0.49 | 0.23 | 94 | 1005.5 |
| 20260509140504 | 54 | 209 | 1.0 | 3.0 | 0.00 | 0.49 | 0.23 | 94 | 1005.5 |
| 20260509140005 | 54 | 209 | 1.0 | 3.0 | 0.00 | 0.49 | 0.23 | 94 | 1005.3 |
| 20260509135503 | 54 | 208 | 2.0 | 5.0 | 0.00 | 0.49 | 0.23 | 94 | 1005.5 |
| 20260509135004 | 54 | 219 | 2.0 | 5.0 | 0.00 | 0.49 | 0.23 | 94 | 1005.5 |
| 20260509134504 | 54 | 229 | 2.0 | 4.0 | 0.00 | 0.49 | 0.23 | 94 | 1005.4 |
| 20260509134004 | 54 | 226 | 2.0 | 4.0 | 0.00 | 0.49 | 0.23 | 94 | 1005.5 |
| 20260509133503 | 54 | 224 | 2.0 | 5.0 | 0.00 | 0.49 | 0.23 | 94 | 1005.5 |
| 20260509133005 | 54 | 223 | 1.0 | 5.0 | 0.00 | 0.49 | 0.23 | 94 | 1005.5 |
| 20260509132503 | 54 | 219 | 1.0 | 4.0 | 0.00 | 0.49 | 0.23 | 94 | 1005.5 |
| 20260509132005 | 53 | 219 | 1.0 | 4.0 | 0.00 | 0.49 | 0.23 | 94 | 1005.6 |
| 20260509131503 | 53 | 0 | 0.0 | 0.0 | 0.00 | 0.49 | 0.23 | 94 | 1005.6 |
| 20260509131005 | 53 | 220 | 0.0 | 2.0 | 0.00 | 0.49 | 0.23 | 94 | 1005.6 |
| 20260509130504 | 53 | 219 | 1.0 | 3.0 | 0.00 | 0.49 | 0.23 | 94 | 1005.7 |
| 20260509130004 | 53 | 219 | 1.0 | 4.0 | 0.00 | 0.49 | 0.23 | 94 | 1005.7 |
| 20260509125504 | 53 | 216 | 1.0 | 4.0 | 0.00 | 0.49 | 0.23 | 94 | 1005.7 |
| 20260509125005 | 53 | 214 | 1.0 | 4.0 | 0.00 | 0.49 | 0.23 | 94 | 1005.8 |
| 20260509124504 | 53 | 215 | 0.0 | 4.0 | 0.00 | 0.49 | 0.23 | 94 | 1005.9 |
| 20260509124004 | 53 | 0 | 0.0 | 0.0 | 0.00 | 0.49 | 0.23 | 94 | 1005.9 |
| 20260509123504 | 53 | 0 | 0.0 | 0.0 | 0.00 | 0.49 | 0.23 | 94 | 1005.9 |
| 20260509123005 | 53 | 215 | 0.0 | 2.0 | 0.00 | 0.49 | 0.23 | 94 | 1005.9 |
| 20260509122504 | 53 | 215 | 1.0 | 3.0 | 0.00 | 0.49 | 0.23 | 94 | 1005.9 |
| 20260509122005 | 53 | 214 | 1.0 | 3.0 | 0.00 | 0.49 | 0.23 | 94 | 1005.9 |
| 20260509120504 | 52 | 213 | 0.0 | 1.0 | 0.00 | 0.49 | 0.23 | 94 | 1005.9 |
| 20260509120005 | 52 | 213 | 0.0 | 3.0 | 0.00 | 0.49 | 0.23 | 94 | 1005.9 |